createdAt,value
2022-09-03T00:00:45.240Z,0.00
2022-09-03T00:01:45.285Z,0.00
2022-09-03T00:02:45.303Z,0.00
2022-09-03T00:03:46.220Z,0.00
2022-09-03T00:04:45.200Z,0.00
2022-09-03T00:05:45.196Z,0.00
2022-09-03T00:06:45.189Z,0.00
2022-09-03T00:07:45.197Z,0.00
2022-09-03T00:08:45.173Z,0.00
2022-09-03T00:09:45.177Z,0.00
2022-09-03T00:10:45.147Z,0.00
2022-09-03T00:11:45.136Z,0.00
2022-09-03T00:12:45.135Z,0.00
2022-09-03T00:13:45.120Z,0.00
2022-09-03T00:14:45.108Z,0.00
2022-09-03T00:15:45.134Z,0.00
2022-09-03T00:16:45.076Z,0.00
2022-09-03T00:17:45.128Z,0.00
2022-09-03T00:18:45.069Z,0.00
2022-09-03T00:19:45.059Z,0.00
2022-09-03T00:20:45.042Z,0.00
2022-09-03T00:21:45.040Z,0.00
2022-09-03T00:22:45.040Z,0.00
2022-09-03T00:23:45.031Z,0.00
2022-09-03T00:24:45.002Z,0.00
2022-09-03T00:25:44.986Z,0.00
2022-09-03T00:26:45.977Z,0.00
2022-09-03T00:27:44.991Z,0.00
2022-09-03T00:28:44.965Z,0.00
2022-09-03T00:29:44.951Z,0.00
2022-09-03T00:30:44.941Z,0.00
2022-09-03T00:31:44.933Z,0.00
2022-09-03T00:32:44.941Z,0.00
2022-09-03T00:33:44.969Z,0.00
2022-09-03T00:34:44.905Z,0.00
2022-09-03T00:35:44.893Z,0.00
2022-09-03T00:36:44.888Z,0.00
2022-09-03T00:37:44.896Z,0.00
2022-09-03T00:38:44.869Z,0.00
2022-09-03T00:39:44.922Z,0.00
2022-09-03T00:40:44.840Z,0.00
2022-09-03T00:41:44.823Z,0.00
2022-09-03T00:42:44.840Z,0.00
2022-09-03T00:43:44.811Z,0.00
2022-09-03T00:44:44.806Z,0.00
2022-09-03T00:45:44.845Z,0.00
2022-09-03T00:46:44.860Z,0.00
2022-09-03T00:47:44.790Z,0.00
2022-09-03T00:48:44.771Z,0.00
2022-09-03T00:49:44.758Z,0.00
2022-09-03T00:50:44.747Z,0.00
2022-09-03T00:51:44.740Z,0.00
2022-09-03T00:52:44.766Z,0.00
2022-09-03T00:53:44.706Z,0.00
2022-09-03T00:54:44.708Z,0.00
2022-09-03T00:55:44.696Z,0.00
2022-09-03T00:56:44.688Z,0.00
2022-09-03T00:57:47.300Z,0.00
2022-09-03T00:58:44.661Z,0.00
2022-09-03T00:59:44.654Z,0.00
2022-09-03T01:00:44.644Z,0.00
2022-09-03T01:01:44.772Z,0.00
2022-09-03T01:02:44.786Z,0.00
2022-09-03T01:03:44.616Z,0.00
2022-09-03T01:04:44.604Z,0.00
2022-09-03T01:05:44.584Z,0.00
2022-09-03T01:06:44.583Z,0.00
2022-09-03T01:07:44.621Z,0.00
2022-09-03T01:08:44.564Z,0.00
2022-09-03T01:09:44.560Z,0.00
2022-09-03T01:10:44.542Z,0.00
2022-09-03T01:11:44.536Z,0.00
2022-09-03T01:12:44.546Z,0.00
2022-09-03T01:13:44.516Z,0.00
2022-09-03T01:14:44.503Z,0.00
2022-09-03T01:15:44.525Z,0.00
2022-09-03T01:16:44.489Z,0.00
2022-09-03T01:17:44.493Z,0.00
2022-09-03T01:18:44.471Z,0.00
2022-09-03T01:19:44.462Z,0.00
2022-09-03T01:20:44.449Z,0.00
2022-09-03T01:21:44.435Z,0.00
2022-09-03T01:22:44.504Z,0.00
2022-09-03T01:23:44.462Z,0.00
2022-09-03T01:24:44.409Z,0.00
2022-09-03T01:25:44.398Z,0.00
2022-09-03T01:26:44.390Z,0.00
2022-09-03T01:27:44.396Z,0.00
2022-09-03T01:28:44.373Z,0.00
2022-09-03T01:29:44.347Z,0.00
2022-09-03T01:30:44.378Z,0.00
2022-09-03T01:31:44.342Z,0.00
2022-09-03T01:32:44.352Z,0.00
2022-09-03T01:33:44.323Z,0.00
2022-09-03T01:34:44.314Z,0.00
2022-09-03T01:35:44.307Z,0.00
2022-09-03T01:36:44.293Z,0.00
2022-09-03T01:37:44.305Z,0.00
2022-09-03T01:38:44.268Z,0.00
2022-09-03T01:39:44.292Z,0.00
2022-09-03T01:40:44.260Z,0.00
2022-09-03T01:41:44.246Z,0.00
2022-09-03T01:42:44.254Z,0.00
2022-09-03T01:43:45.524Z,0.00
2022-09-03T01:44:45.218Z,0.00
2022-09-03T01:45:51.278Z,0.00
2022-09-03T01:46:45.273Z,0.00
2022-09-03T01:47:44.207Z,0.00
2022-09-03T01:48:44.177Z,0.00
2022-09-03T01:49:44.168Z,0.00
2022-09-03T01:50:44.157Z,0.00
2022-09-03T01:51:44.138Z,0.00
2022-09-03T01:52:45.155Z,0.00
2022-09-03T01:53:44.118Z,0.00
2022-09-03T01:54:44.119Z,0.00
2022-09-03T01:55:44.106Z,0.00
2022-09-03T01:56:44.093Z,0.00
2022-09-03T01:57:44.098Z,0.00
2022-09-03T01:58:44.076Z,0.00
2022-09-03T01:59:44.067Z,0.00
2022-09-03T02:00:44.062Z,0.00
2022-09-03T02:01:44.181Z,0.00
2022-09-03T02:02:44.092Z,0.00
2022-09-03T02:03:44.032Z,0.00
2022-09-03T02:04:44.022Z,0.00
2022-09-03T02:05:44.010Z,0.00
2022-09-03T02:06:44.002Z,0.00
2022-09-03T02:07:44.012Z,0.00
2022-09-03T02:08:43.977Z,0.00
2022-09-03T02:09:43.966Z,0.00
2022-09-03T02:10:43.962Z,0.00
2022-09-03T02:11:43.956Z,0.00
2022-09-03T02:12:43.960Z,0.00
2022-09-03T02:13:43.931Z,0.00
2022-09-03T02:14:43.958Z,0.00
2022-09-03T02:15:43.979Z,0.00
2022-09-03T02:16:43.902Z,0.00
2022-09-03T02:17:43.909Z,0.00
2022-09-03T02:18:43.878Z,0.00
2022-09-03T02:19:43.873Z,0.00
2022-09-03T02:20:43.852Z,0.00
2022-09-03T02:21:43.854Z,0.00
2022-09-03T02:22:43.862Z,0.00
2022-09-03T02:23:43.838Z,0.00
2022-09-03T02:24:43.830Z,0.00
2022-09-03T02:25:43.821Z,0.00
2022-09-03T02:26:43.811Z,0.00
2022-09-03T02:27:43.811Z,0.00
2022-09-03T02:28:43.795Z,0.00
2022-09-03T02:29:43.778Z,0.00
2022-09-03T02:30:43.850Z,0.00
2022-09-03T02:31:43.764Z,0.00
2022-09-03T02:32:43.763Z,0.00
2022-09-03T02:33:43.741Z,0.00
2022-09-03T02:34:43.739Z,0.00
2022-09-03T02:35:43.731Z,0.00
2022-09-03T02:36:43.703Z,0.00
2022-09-03T02:37:43.734Z,0.00
2022-09-03T02:38:43.697Z,0.00
2022-09-03T02:39:43.725Z,0.00
2022-09-03T02:40:43.697Z,0.00
2022-09-03T02:41:43.668Z,0.00
2022-09-03T02:42:43.682Z,0.00
2022-09-03T02:43:43.646Z,0.00
2022-09-03T02:44:43.639Z,0.00
2022-09-03T02:45:43.668Z,0.00
2022-09-03T02:46:43.621Z,0.00
2022-09-03T02:47:43.632Z,0.00
2022-09-03T02:48:43.605Z,0.00
2022-09-03T02:49:43.602Z,0.00
2022-09-03T02:50:43.579Z,0.00
2022-09-03T02:51:43.570Z,0.00
2022-09-03T02:52:43.578Z,0.00
2022-09-03T02:53:43.567Z,0.00
2022-09-03T02:54:43.559Z,0.00
2022-09-03T02:55:43.528Z,0.00
2022-09-03T02:56:43.511Z,0.00
2022-09-03T02:57:43.525Z,0.00
2022-09-03T02:58:43.498Z,0.00
2022-09-03T02:59:43.483Z,0.00
2022-09-03T03:00:43.461Z,0.00
2022-09-03T03:01:43.495Z,0.00
2022-09-03T03:02:43.509Z,0.00
2022-09-03T03:03:43.443Z,0.00
2022-09-03T03:04:43.437Z,0.00
2022-09-03T03:05:43.427Z,0.00
2022-09-03T03:06:43.421Z,0.00
2022-09-03T03:07:43.423Z,0.00
2022-09-03T03:08:43.391Z,0.00
2022-09-03T03:09:43.385Z,0.00
2022-09-03T03:10:43.376Z,0.00
2022-09-03T03:11:43.368Z,0.00
2022-09-03T03:12:43.361Z,0.00
2022-09-03T03:13:43.354Z,0.00
2022-09-03T03:14:43.336Z,0.00
2022-09-03T03:15:43.331Z,0.00
2022-09-03T03:16:43.393Z,0.00
2022-09-03T03:17:43.330Z,0.00
2022-09-03T03:18:43.302Z,0.00
2022-09-03T03:19:43.294Z,0.00
2022-09-03T03:20:43.277Z,0.00
2022-09-03T03:21:43.269Z,0.00
2022-09-03T03:22:43.275Z,0.00
2022-09-03T03:23:43.251Z,0.00
2022-09-03T03:24:43.231Z,0.00
2022-09-03T03:25:43.254Z,0.00
2022-09-03T03:26:43.229Z,0.00
2022-09-03T03:27:43.226Z,0.00
2022-09-03T03:28:43.196Z,0.00
2022-09-03T03:29:43.215Z,0.00
2022-09-03T03:30:43.280Z,0.00
2022-09-03T03:31:44.170Z,0.00
2022-09-03T03:32:43.167Z,0.00
2022-09-03T03:33:43.151Z,0.00
2022-09-03T03:34:43.167Z,0.00
2022-09-03T03:35:43.130Z,0.00
2022-09-03T03:36:43.120Z,0.00
2022-09-03T03:37:43.126Z,0.00
2022-09-03T03:38:43.101Z,0.00
2022-09-03T03:39:43.142Z,0.00
2022-09-03T03:40:43.068Z,0.00
2022-09-03T03:41:43.064Z,0.00
2022-09-03T03:42:43.081Z,0.00
2022-09-03T03:43:43.050Z,0.00
2022-09-03T03:44:43.030Z,0.00
2022-09-03T03:45:43.078Z,0.00
2022-09-03T03:46:43.019Z,0.00
2022-09-03T03:47:43.028Z,0.00
2022-09-03T03:48:42.996Z,0.00
2022-09-03T03:49:42.992Z,0.00
2022-09-03T03:50:43.003Z,0.00
2022-09-03T03:51:42.967Z,0.00
2022-09-03T03:52:42.972Z,0.00
2022-09-03T03:53:42.950Z,0.00
2022-09-03T03:54:42.936Z,0.00
2022-09-03T03:55:42.931Z,0.00
2022-09-03T03:56:42.918Z,0.00
2022-09-03T03:57:42.968Z,0.00
2022-09-03T03:58:42.896Z,0.00
2022-09-03T03:59:42.887Z,0.00
2022-09-03T04:00:42.880Z,0.00
2022-09-03T04:01:42.922Z,0.00
2022-09-03T04:02:42.959Z,0.00
2022-09-03T04:03:42.848Z,0.00
2022-09-03T04:04:42.837Z,0.00
2022-09-03T04:05:48.513Z,0.00
2022-09-03T04:06:44.815Z,0.00
2022-09-03T04:07:42.803Z,0.00
2022-09-03T04:08:42.807Z,0.00
2022-09-03T04:09:42.786Z,0.00
2022-09-03T04:10:42.777Z,0.00
2022-09-03T04:11:42.764Z,0.00
2022-09-03T04:12:42.759Z,0.00
2022-09-03T04:13:42.767Z,0.00
2022-09-03T04:14:42.735Z,0.00
2022-09-03T04:15:42.729Z,0.00
2022-09-03T04:16:42.784Z,0.00
2022-09-03T04:17:42.712Z,0.00
2022-09-03T04:18:42.717Z,0.00
2022-09-03T04:19:42.687Z,0.00
2022-09-03T04:20:42.674Z,0.00
2022-09-03T04:21:42.669Z,0.00
2022-09-03T04:22:42.662Z,0.00
2022-09-03T04:23:42.671Z,0.00
2022-09-03T04:24:42.631Z,0.00
2022-09-03T04:25:42.627Z,0.00
2022-09-03T04:26:42.618Z,0.00
2022-09-03T04:27:42.619Z,0.00
2022-09-03T04:28:42.621Z,0.00
2022-09-03T04:29:42.587Z,5.62
2022-09-03T04:30:42.603Z,5.62
2022-09-03T04:31:42.568Z,5.62
2022-09-03T04:32:42.549Z,5.62
2022-09-03T04:33:42.568Z,5.62
2022-09-03T04:34:42.542Z,5.62
2022-09-03T04:35:42.528Z,5.62
2022-09-03T04:36:42.513Z,11.25
2022-09-03T04:37:42.510Z,11.25
2022-09-03T04:38:42.516Z,11.25
2022-09-03T04:39:42.551Z,11.25
2022-09-03T04:40:42.473Z,11.25
2022-09-03T04:41:42.465Z,16.88
2022-09-03T04:42:42.458Z,16.88
2022-09-03T04:43:42.465Z,16.88
2022-09-03T04:44:42.424Z,22.50
2022-09-03T04:45:42.462Z,22.50
2022-09-03T04:46:42.419Z,22.50
2022-09-03T04:47:42.406Z,22.50
2022-09-03T04:48:42.408Z,28.12
2022-09-03T04:49:42.387Z,28.12
2022-09-03T04:50:42.374Z,28.12
2022-09-03T04:51:42.369Z,33.75
2022-09-03T04:52:42.357Z,33.75
2022-09-03T04:53:42.375Z,39.38
2022-09-03T04:54:42.342Z,39.38
2022-09-03T04:55:42.328Z,39.38
2022-09-03T04:56:42.317Z,45.00
2022-09-03T04:57:42.315Z,45.00
2022-09-03T04:58:44.042Z,45.00
2022-09-03T04:59:42.288Z,50.62
2022-09-03T05:00:42.294Z,50.62
2022-09-03T05:01:42.265Z,56.25
2022-09-03T05:02:42.256Z,56.25
2022-09-03T05:03:42.267Z,61.88
2022-09-03T05:04:42.251Z,61.88
2022-09-03T05:05:42.230Z,61.88
2022-09-03T05:06:42.218Z,67.50
2022-09-03T05:07:42.213Z,67.50
2022-09-03T05:08:42.213Z,73.12
2022-09-03T05:09:42.196Z,73.12
2022-09-03T05:10:42.185Z,78.75
2022-09-03T05:11:42.164Z,78.75
2022-09-03T05:12:42.171Z,78.75
2022-09-03T05:13:42.172Z,84.38
2022-09-03T05:14:42.149Z,84.38
2022-09-03T05:15:42.126Z,90.00
2022-09-03T05:16:42.298Z,90.00
2022-09-03T05:17:42.118Z,90.00
2022-09-03T05:18:42.121Z,95.62
2022-09-03T05:19:42.111Z,95.62
2022-09-03T05:20:42.086Z,101.25
2022-09-03T05:21:42.067Z,101.25
2022-09-03T05:22:42.067Z,101.25
2022-09-03T05:23:42.076Z,106.88
2022-09-03T05:24:42.037Z,106.88
2022-09-03T05:25:42.031Z,106.88
2022-09-03T05:26:42.026Z,112.50
2022-09-03T05:27:42.012Z,112.50
2022-09-03T05:29:07.948Z,112.50
2022-09-03T05:29:41.990Z,112.50
2022-09-03T05:30:41.990Z,112.50
2022-09-03T05:31:42.028Z,118.12
2022-09-03T05:32:41.963Z,118.12
2022-09-03T05:33:41.977Z,118.12
2022-09-03T05:34:41.949Z,123.75
2022-09-03T05:35:41.924Z,123.75
2022-09-03T05:36:41.936Z,129.38
2022-09-03T05:37:41.912Z,129.38
2022-09-03T05:38:41.929Z,129.38
2022-09-03T05:39:42.000Z,135.00
2022-09-03T05:40:41.872Z,135.00
2022-09-03T05:41:41.866Z,135.00
2022-09-03T05:42:41.854Z,140.62
2022-09-03T05:43:41.878Z,140.62
2022-09-03T05:44:42.833Z,140.62
2022-09-03T05:45:41.877Z,146.25
2022-09-03T05:46:41.808Z,146.25
2022-09-03T05:47:41.817Z,146.25
2022-09-03T05:48:41.807Z,151.88
2022-09-03T05:49:41.780Z,151.88
2022-09-03T05:50:41.769Z,151.88
2022-09-03T05:51:41.756Z,157.50
2022-09-03T05:52:41.741Z,157.50
2022-09-03T05:53:41.770Z,157.50
2022-09-03T05:54:41.723Z,163.12
2022-09-03T05:55:41.716Z,163.12
2022-09-03T05:56:41.706Z,163.12
2022-09-03T05:57:41.698Z,163.12
2022-09-03T05:58:41.712Z,168.75
2022-09-03T05:59:41.689Z,168.75
2022-09-03T06:00:41.670Z,168.75
2022-09-03T06:01:44.010Z,174.38
2022-09-03T06:02:42.790Z,174.38
2022-09-03T06:03:41.847Z,174.38
2022-09-03T06:04:41.628Z,174.38
2022-09-03T06:05:41.631Z,180.00
2022-09-03T06:06:41.612Z,180.00
2022-09-03T06:07:41.583Z,180.00
2022-09-03T06:08:41.612Z,185.62
2022-09-03T06:09:41.580Z,185.62
2022-09-03T06:10:41.651Z,185.62
2022-09-03T06:11:41.570Z,185.62
2022-09-03T06:12:41.553Z,185.62
2022-09-03T06:13:41.559Z,185.62
2022-09-03T06:14:41.530Z,185.62
2022-09-03T06:15:41.517Z,191.25
2022-09-03T06:16:41.534Z,191.25
2022-09-03T06:17:41.495Z,191.25
2022-09-03T06:18:41.501Z,191.25
2022-09-03T06:19:41.473Z,196.88
2022-09-03T06:20:41.464Z,196.88
2022-09-03T06:21:41.456Z,196.88
2022-09-03T06:22:41.447Z,202.50
2022-09-03T06:23:46.714Z,202.50
2022-09-03T06:24:41.427Z,202.50
2022-09-03T06:25:41.410Z,202.50
2022-09-03T06:26:42.841Z,208.12
2022-09-03T06:27:41.381Z,208.12
2022-09-03T06:28:41.409Z,208.12
2022-09-03T06:29:41.396Z,213.75
2022-09-03T06:30:41.408Z,213.75
2022-09-03T06:31:41.387Z,213.75
2022-09-03T06:32:41.429Z,213.75
2022-09-03T06:33:41.352Z,219.38
2022-09-03T06:34:41.324Z,219.38
2022-09-03T06:35:43.069Z,219.38
2022-09-03T06:36:41.338Z,225.00
2022-09-03T06:37:41.291Z,225.00
2022-09-03T06:38:41.316Z,225.00
2022-09-03T06:39:41.345Z,225.00
2022-09-03T06:40:41.279Z,230.62
2022-09-03T06:41:41.268Z,230.62
2022-09-03T06:42:41.260Z,230.62
2022-09-03T06:43:41.255Z,230.62
2022-09-03T06:44:41.228Z,230.62
2022-09-03T06:45:41.266Z,230.62
2022-09-03T06:46:41.210Z,230.62
2022-09-03T06:47:41.190Z,230.62
2022-09-03T06:48:41.200Z,230.62
2022-09-03T06:49:41.165Z,236.25
2022-09-03T06:50:41.216Z,236.25
2022-09-03T06:51:41.145Z,236.25
2022-09-03T06:52:41.145Z,236.25
2022-09-03T06:53:41.166Z,241.88
2022-09-03T06:54:41.127Z,241.88
2022-09-03T06:55:41.108Z,241.88
2022-09-03T06:56:41.461Z,241.88
2022-09-03T06:57:41.092Z,247.50
2022-09-03T06:58:41.106Z,247.50
2022-09-03T06:59:41.071Z,247.50
2022-09-03T07:00:41.153Z,247.50
2022-09-03T07:01:44.367Z,247.50
2022-09-03T07:02:44.793Z,253.12
2022-09-03T07:03:42.055Z,253.12
2022-09-03T07:04:41.020Z,253.12
2022-09-03T07:05:41.016Z,253.12
2022-09-03T07:06:41.001Z,253.12
2022-09-03T07:07:40.997Z,253.12
2022-09-03T07:08:40.996Z,258.75
2022-09-03T07:09:44.003Z,258.75
2022-09-03T07:10:42.032Z,258.75
2022-09-03T07:11:40.956Z,258.75
2022-09-03T07:12:40.945Z,258.75
2022-09-03T07:13:40.957Z,264.38
2022-09-03T07:14:40.932Z,264.38
2022-09-03T07:15:40.922Z,264.38
2022-09-03T07:16:40.933Z,264.38
2022-09-03T07:17:40.903Z,264.38
2022-09-03T07:18:40.900Z,270.00
2022-09-03T07:19:40.894Z,270.00
2022-09-03T07:20:40.867Z,270.00
2022-09-03T07:21:43.938Z,270.00
2022-09-03T07:22:40.842Z,270.00
2022-09-03T07:23:40.930Z,264.38
2022-09-03T07:24:40.839Z,270.00
2022-09-03T07:25:40.813Z,270.00
2022-09-03T07:26:40.803Z,270.00
2022-09-03T07:27:40.796Z,270.00
2022-09-03T07:28:40.813Z,270.00
2022-09-03T07:29:40.795Z,275.62
2022-09-03T07:30:40.764Z,275.62
2022-09-03T07:31:40.776Z,275.62
2022-09-03T07:32:40.755Z,275.62
2022-09-03T07:33:40.775Z,275.62
2022-09-03T07:34:40.730Z,275.62
2022-09-03T07:35:40.730Z,281.25
2022-09-03T07:36:40.693Z,281.25
2022-09-03T07:37:41.690Z,281.25
2022-09-03T07:38:40.703Z,281.25
2022-09-03T07:39:40.714Z,281.25
2022-09-03T07:40:40.666Z,281.25
2022-09-03T07:41:40.659Z,281.25
2022-09-03T07:42:40.653Z,286.88
2022-09-03T07:43:40.645Z,286.88
2022-09-03T07:44:40.648Z,286.88
2022-09-03T07:45:40.623Z,286.88
2022-09-03T07:46:40.657Z,286.88
2022-09-03T07:47:40.602Z,286.88
2022-09-03T07:48:40.592Z,286.88
2022-09-03T07:49:40.603Z,286.88
2022-09-03T07:50:40.571Z,286.88
2022-09-03T07:51:40.562Z,292.50
2022-09-03T07:52:40.555Z,292.50
2022-09-03T07:53:40.545Z,292.50
2022-09-03T07:54:40.563Z,292.50
2022-09-03T07:55:40.521Z,292.50
2022-09-03T07:56:40.543Z,292.50
2022-09-03T07:57:40.514Z,292.50
2022-09-03T07:58:40.484Z,292.50
2022-09-03T07:59:40.503Z,292.50
2022-09-03T08:00:40.489Z,292.50
2022-09-03T08:01:41.630Z,298.12
2022-09-03T08:02:45.479Z,298.12
2022-09-03T08:03:42.480Z,303.75
2022-09-03T08:04:40.426Z,298.12
2022-09-03T08:05:40.420Z,298.12
2022-09-03T08:06:40.408Z,298.12
2022-09-03T08:07:40.390Z,298.12
2022-09-03T08:08:40.412Z,298.12
2022-09-03T08:09:40.381Z,298.12
2022-09-03T08:10:40.395Z,303.75
2022-09-03T08:11:40.350Z,303.75
2022-09-03T08:12:40.351Z,303.75
2022-09-03T08:13:40.396Z,303.75
2022-09-03T08:14:40.330Z,303.75
2022-09-03T08:15:40.349Z,303.75
2022-09-03T08:16:40.383Z,303.75
2022-09-03T08:17:40.298Z,303.75
2022-09-03T08:18:40.331Z,303.75
2022-09-03T08:19:40.279Z,303.75
2022-09-03T08:20:40.270Z,303.75
2022-09-03T08:21:40.273Z,303.75
2022-09-03T08:22:40.253Z,303.75
2022-09-03T08:23:40.250Z,303.75
2022-09-03T08:24:40.221Z,303.75
2022-09-03T08:25:40.229Z,303.75
2022-09-03T08:26:40.208Z,303.75
2022-09-03T08:27:40.202Z,309.38
2022-09-03T08:28:40.203Z,309.38
2022-09-03T08:29:40.182Z,309.38
2022-09-03T08:30:40.169Z,309.38
2022-09-03T08:31:40.303Z,309.38
2022-09-03T08:32:40.147Z,309.38
2022-09-03T08:33:40.171Z,309.38
2022-09-03T08:34:40.129Z,309.38
2022-09-03T08:35:40.121Z,309.38
2022-09-03T08:36:40.110Z,309.38
2022-09-03T08:37:40.104Z,315.00
2022-09-03T08:38:40.107Z,315.00
2022-09-03T08:39:40.179Z,315.00
2022-09-03T08:40:40.108Z,315.00
2022-09-03T08:41:40.058Z,315.00
2022-09-03T08:42:40.065Z,315.00
2022-09-03T08:43:40.094Z,320.62
2022-09-03T08:44:40.031Z,320.62
2022-09-03T08:45:40.020Z,320.62
2022-09-03T08:46:40.039Z,320.62
2022-09-03T08:47:40.011Z,320.62
2022-09-03T08:48:40.016Z,320.62
2022-09-03T08:49:39.989Z,320.62
2022-09-03T08:50:39.978Z,326.25
2022-09-03T08:51:39.963Z,326.25
2022-09-03T08:52:39.953Z,326.25
2022-09-03T08:53:39.964Z,326.25
2022-09-03T08:54:39.938Z,326.25
2022-09-03T08:55:39.926Z,326.25
2022-09-03T08:56:39.929Z,326.25
2022-09-03T08:57:39.908Z,331.88
2022-09-03T08:58:39.927Z,331.88
2022-09-03T08:59:39.889Z,331.88
2022-09-03T09:00:39.880Z,331.88
2022-09-03T09:01:39.951Z,331.88
2022-09-03T09:02:40.020Z,331.88
2022-09-03T09:03:39.874Z,331.88
2022-09-03T09:04:39.840Z,331.88
2022-09-03T09:05:39.833Z,331.88
2022-09-03T09:06:39.818Z,331.88
2022-09-03T09:07:39.803Z,331.88
2022-09-03T09:08:39.823Z,331.88
2022-09-03T09:09:39.789Z,331.88
2022-09-03T09:10:39.779Z,331.88
2022-09-03T09:11:39.773Z,326.25
2022-09-03T09:12:45.625Z,331.88
2022-09-03T09:13:41.778Z,298.12
2022-09-03T09:14:39.757Z,292.50
2022-09-03T09:15:39.763Z,320.62
2022-09-03T09:16:39.725Z,315.00
2022-09-03T09:17:39.713Z,331.88
2022-09-03T09:18:39.725Z,331.88
2022-09-03T09:19:39.699Z,331.88
2022-09-03T09:20:39.691Z,337.50
2022-09-03T09:21:39.684Z,337.50
2022-09-03T09:22:39.672Z,331.88
2022-09-03T09:23:39.680Z,315.00
2022-09-03T09:24:39.653Z,320.62
2022-09-03T09:25:39.637Z,309.38
2022-09-03T09:26:39.632Z,309.38
2022-09-03T09:27:39.624Z,315.00
2022-09-03T09:28:39.638Z,331.88
2022-09-03T09:29:39.596Z,337.50
2022-09-03T09:30:39.598Z,343.12
2022-09-03T09:31:39.646Z,354.38
2022-09-03T09:32:39.572Z,348.75
2022-09-03T09:33:39.576Z,348.75
2022-09-03T09:34:39.552Z,331.88
2022-09-03T09:35:39.541Z,309.38
2022-09-03T09:36:39.524Z,315.00
2022-09-03T09:37:39.512Z,326.25
2022-09-03T09:38:39.528Z,337.50
2022-09-03T09:39:39.531Z,309.38
2022-09-03T09:40:44.664Z,337.50
2022-09-03T09:41:41.481Z,320.62
2022-09-03T09:42:39.473Z,326.25
2022-09-03T09:43:39.466Z,343.12
2022-09-03T09:44:39.446Z,360.00
2022-09-03T09:45:39.453Z,360.00
2022-09-03T09:46:39.510Z,360.00
2022-09-03T09:47:39.421Z,354.38
2022-09-03T09:48:39.430Z,354.38
2022-09-03T09:49:39.401Z,331.88
2022-09-03T09:50:39.381Z,320.62
2022-09-03T09:51:39.367Z,337.50
2022-09-03T09:52:39.363Z,337.50
2022-09-03T09:53:39.371Z,337.50
2022-09-03T09:54:39.366Z,343.12
2022-09-03T09:55:39.339Z,348.75
2022-09-03T09:56:39.321Z,360.00
2022-09-03T09:57:39.323Z,382.50
2022-09-03T09:58:39.336Z,388.12
2022-09-03T09:59:39.293Z,382.50
2022-09-03T10:00:39.288Z,365.62
2022-09-03T10:01:39.319Z,388.12
2022-09-03T10:02:39.300Z,388.12
2022-09-03T10:03:39.273Z,348.75
2022-09-03T10:04:39.241Z,343.12
2022-09-03T10:05:39.257Z,354.38
2022-09-03T10:06:39.228Z,360.00
2022-09-03T10:07:39.254Z,388.12
2022-09-03T10:08:39.192Z,376.88
2022-09-03T10:09:39.214Z,382.50
2022-09-03T10:10:39.197Z,393.75
2022-09-03T10:11:39.209Z,405.00
2022-09-03T10:12:39.177Z,416.25
2022-09-03T10:13:39.166Z,405.00
2022-09-03T10:14:39.163Z,416.25
2022-09-03T10:15:39.168Z,421.88
2022-09-03T10:16:39.124Z,416.25
2022-09-03T10:17:39.120Z,410.62
2022-09-03T10:18:39.119Z,438.75
2022-09-03T10:19:39.163Z,438.75
2022-09-03T10:20:39.098Z,433.12
2022-09-03T10:21:39.086Z,416.25
2022-09-03T10:22:39.073Z,399.38
2022-09-03T10:23:40.065Z,399.38
2022-09-03T10:24:39.067Z,393.75
2022-09-03T10:25:39.039Z,393.75
2022-09-03T10:26:39.041Z,399.38
2022-09-03T10:27:39.017Z,405.00
2022-09-03T10:28:39.036Z,416.25
2022-09-03T10:29:39.017Z,455.62
2022-09-03T10:30:39.054Z,461.25
2022-09-03T10:31:38.978Z,461.25
2022-09-03T10:32:39.982Z,500.62
2022-09-03T10:33:38.996Z,483.75
2022-09-03T10:34:38.972Z,461.25
2022-09-03T10:35:38.939Z,410.62
2022-09-03T10:36:38.996Z,405.00
2022-09-03T10:37:38.921Z,405.00
2022-09-03T10:38:38.915Z,427.50
2022-09-03T10:39:42.840Z,466.88
2022-09-03T10:40:38.896Z,472.50
2022-09-03T10:41:38.898Z,450.00
2022-09-03T10:42:38.881Z,455.62
2022-09-03T10:43:38.937Z,444.38
2022-09-03T10:44:38.884Z,444.38
2022-09-03T10:45:38.883Z,444.38
2022-09-03T10:46:38.910Z,444.38
2022-09-03T10:47:38.826Z,444.38
2022-09-03T10:48:38.816Z,450.00
2022-09-03T10:49:38.832Z,450.00
2022-09-03T10:50:38.796Z,455.62
2022-09-03T10:51:38.786Z,455.62
2022-09-03T10:52:38.777Z,455.62
2022-09-03T10:53:38.778Z,450.00
2022-09-03T10:54:38.787Z,455.62
2022-09-03T10:55:38.755Z,455.62
2022-09-03T10:56:38.743Z,455.62
2022-09-03T10:57:38.728Z,455.62
2022-09-03T10:58:38.738Z,410.62
2022-09-03T10:59:38.740Z,438.75
2022-09-03T11:00:38.705Z,393.75
2022-09-03T11:01:38.735Z,393.75
2022-09-03T11:02:38.776Z,393.75
2022-09-03T11:03:38.668Z,410.62
2022-09-03T11:04:38.684Z,399.38
2022-09-03T11:05:38.663Z,399.38
2022-09-03T11:06:38.642Z,427.50
2022-09-03T11:07:38.633Z,410.62
2022-09-03T11:08:38.621Z,416.25
2022-09-03T11:09:38.645Z,421.88
2022-09-03T11:10:38.634Z,427.50
2022-09-03T11:11:38.601Z,427.50
2022-09-03T11:12:38.586Z,433.12
2022-09-03T11:13:38.579Z,427.50
2022-09-03T11:14:38.620Z,433.12
2022-09-03T11:15:38.625Z,421.88
2022-09-03T11:16:38.550Z,421.88
2022-09-03T11:17:38.598Z,438.75
2022-09-03T11:18:38.529Z,427.50
2022-09-03T11:19:38.635Z,489.38
2022-09-03T11:20:38.527Z,450.00
2022-09-03T11:21:38.502Z,438.75
2022-09-03T11:22:38.491Z,450.00
2022-09-03T11:23:38.487Z,472.50
2022-09-03T11:24:38.489Z,461.25
2022-09-03T11:25:38.467Z,455.62
2022-09-03T11:26:38.452Z,472.50
2022-09-03T11:27:38.450Z,478.12
2022-09-03T11:28:38.434Z,472.50
2022-09-03T11:29:38.711Z,438.75
2022-09-03T11:30:38.485Z,427.50
2022-09-03T11:31:38.404Z,433.12
2022-09-03T11:32:38.392Z,399.38
2022-09-03T11:33:39.388Z,376.88
2022-09-03T11:34:38.392Z,371.25
2022-09-03T11:35:38.364Z,371.25
2022-09-03T11:36:38.360Z,376.88
2022-09-03T11:37:38.351Z,376.88
2022-09-03T11:38:38.336Z,376.88
2022-09-03T11:39:38.482Z,376.88
2022-09-03T11:40:38.327Z,371.25
2022-09-03T11:41:38.313Z,371.25
2022-09-03T11:42:38.332Z,376.88
2022-09-03T11:43:38.291Z,388.12
2022-09-03T11:44:40.878Z,382.50
2022-09-03T11:45:39.324Z,388.12
2022-09-03T11:46:38.379Z,405.00
2022-09-03T11:47:38.247Z,416.25
2022-09-03T11:48:38.287Z,438.75
2022-09-03T11:49:38.254Z,438.75
2022-09-03T11:50:38.214Z,399.38
2022-09-03T11:51:38.211Z,405.00
2022-09-03T11:52:38.229Z,427.50
2022-09-03T11:53:38.192Z,421.88
2022-09-03T11:54:38.270Z,421.88
2022-09-03T11:55:43.396Z,450.00
2022-09-03T11:56:40.180Z,461.25
2022-09-03T11:57:38.148Z,466.88
2022-09-03T11:58:38.147Z,472.50
2022-09-03T12:00:11.208Z,472.50
2022-09-03T12:00:38.124Z,472.50
2022-09-03T12:01:38.109Z,472.50
2022-09-03T12:02:38.156Z,466.88
2022-09-03T12:03:38.088Z,478.12
2022-09-03T12:04:38.126Z,489.38
2022-09-03T12:05:38.077Z,489.38
2022-09-03T12:06:38.054Z,489.38
2022-09-03T12:07:38.056Z,495.00
2022-09-03T12:08:38.042Z,495.00
2022-09-03T12:09:38.057Z,478.12
2022-09-03T12:10:38.028Z,450.00
2022-09-03T12:11:38.020Z,483.75
2022-09-03T12:12:38.008Z,478.12
2022-09-03T12:13:37.992Z,500.62
2022-09-03T12:14:38.006Z,478.12
2022-09-03T12:15:38.027Z,466.88
2022-09-03T12:16:37.966Z,478.12
2022-09-03T12:17:37.956Z,472.50
2022-09-03T12:18:37.948Z,478.12
2022-09-03T12:19:37.964Z,500.62
2022-09-03T12:20:37.928Z,534.38
2022-09-03T12:21:37.919Z,568.12
2022-09-03T12:22:37.900Z,573.75
2022-09-03T12:23:37.902Z,579.38
2022-09-03T12:24:38.464Z,579.38
2022-09-03T12:25:38.879Z,568.12
2022-09-03T12:26:37.868Z,556.88
2022-09-03T12:27:37.861Z,517.50
2022-09-03T12:28:37.874Z,517.50
2022-09-03T12:29:37.851Z,528.75
2022-09-03T12:30:37.863Z,528.75
2022-09-03T12:31:42.536Z,506.25
2022-09-03T12:32:39.819Z,495.00
2022-09-03T12:33:37.819Z,495.00
2022-09-03T12:34:37.801Z,489.38
2022-09-03T12:36:39.780Z,478.12
2022-09-03T12:38:09.082Z,478.12
2022-09-03T12:39:07.564Z,478.12
2022-09-03T12:40:09.406Z,478.12
2022-09-03T12:41:23.362Z,472.50
2022-09-03T12:41:39.792Z,478.12
2022-09-03T12:42:37.715Z,483.75
2022-09-03T12:43:38.892Z,478.12
2022-09-03T12:44:38.696Z,472.50
2022-09-03T12:46:39.696Z,461.25
2022-09-03T12:47:38.243Z,461.25
2022-09-03T12:48:40.417Z,450.00
2022-09-03T12:49:37.642Z,450.00